Horn, Austria
Current Conditions -  °F | °C
As of 10:50 PM on Wednesday 22 Oct 2014 (Local Time) from LOXT Reporting Station
Light Rain Light Rain  
Wind Chill: 35°   Ceiling: 3200
Heat Index: 43°   Visibility: 11mi
Dew Point: 41°   Wind: 16mph
Humidity: 93%   Direction: 260°W
Pressure: 29.77"   Gusts: NA
Location:  48.67°N, 15.65°E
Report Text: LOXT 222050Z 26014KT 18KM -RA FEW025SC BKN032SC 06/05 Q1008 RMK OVC
Loading
Personal Weather Stations






























Interactive Weather Map
Tropical Storm Tracking
New forecast layout! Learn more

10-Day Weather Forecast

Advertisements
Track Severe Weather on mobile